sensor_id;sensor_type;location;lat;lon;timestamp;P1;durP1;ratioP1;P2;durP2;ratioP2
62861;SDS011;48953;53.110;5.592;2024-01-16T00:01:46;6.05;;;1.20;;
62861;SDS011;48953;53.110;5.592;2024-01-16T00:04:12;10.95;;;1.42;;
62861;SDS011;48953;53.110;5.592;2024-01-16T00:06:42;10.75;;;1.60;;
62861;SDS011;48953;53.110;5.592;2024-01-16T00:09:08;12.98;;;1.50;;
62861;SDS011;48953;53.110;5.592;2024-01-16T00:11:41;11.90;;;1.63;;
62861;SDS011;48953;53.110;5.592;2024-01-16T00:14:07;9.75;;;1.40;;
62861;SDS011;48953;53.110;5.592;2024-01-16T00:16:33;11.30;;;1.60;;
62861;SDS011;48953;53.110;5.592;2024-01-16T00:18:59;8.65;;;1.45;;
62861;SDS011;48953;53.110;5.592;2024-01-16T00:21:25;11.18;;;1.42;;
62861;SDS011;48953;53.110;5.592;2024-01-16T00:23:51;11.82;;;1.60;;
62861;SDS011;48953;53.110;5.592;2024-01-16T00:26:23;11.60;;;1.83;;
62861;SDS011;48953;53.110;5.592;2024-01-16T00:28:49;9.32;;;1.42;;
62861;SDS011;48953;53.110;5.592;2024-01-16T00:31:15;11.23;;;1.65;;
62861;SDS011;48953;53.110;5.592;2024-01-16T00:33:41;14.75;;;1.60;;
62861;SDS011;48953;53.110;5.592;2024-01-16T00:36:07;10.07;;;1.60;;
62861;SDS011;48953;53.110;5.592;2024-01-16T00:38:34;12.80;;;1.73;;
62861;SDS011;48953;53.110;5.592;2024-01-16T00:41:00;10.43;;;1.27;;
62861;SDS011;48953;53.110;5.592;2024-01-16T00:43:26;10.65;;;1.50;;
62861;SDS011;48953;53.110;5.592;2024-01-16T00:45:52;8.15;;;1.20;;
62861;SDS011;48953;53.110;5.592;2024-01-16T00:48:18;9.32;;;1.50;;
62861;SDS011;48953;53.110;5.592;2024-01-16T00:50:45;7.78;;;1.27;;
62861;SDS011;48953;53.110;5.592;2024-01-16T00:53:14;10.23;;;1.45;;
62861;SDS011;48953;53.110;5.592;2024-01-16T00:55:40;8.98;;;1.25;;
62861;SDS011;48953;53.110;5.592;2024-01-16T00:58:06;7.30;;;0.98;;
62861;SDS011;48953;53.110;5.592;2024-01-16T01:00:32;8.90;;;1.00;;
62861;SDS011;48953;53.110;5.592;2024-01-16T01:03:00;8.27;;;1.13;;
62861;SDS011;48953;53.110;5.592;2024-01-16T01:05:26;5.15;;;0.90;;
62861;SDS011;48953;53.110;5.592;2024-01-16T01:07:56;7.40;;;0.90;;
62861;SDS011;48953;53.110;5.592;2024-01-16T01:10:22;7.60;;;0.90;;
62861;SDS011;48953;53.110;5.592;2024-01-16T01:12:48;7.50;;;1.23;;
62861;SDS011;48953;53.110;5.592;2024-01-16T01:15:14;11.43;;;1.27;;
62861;SDS011;48953;53.110;5.592;2024-01-16T01:17:40;4.45;;;0.98;;
62861;SDS011;48953;53.110;5.592;2024-01-16T01:20:07;8.77;;;0.98;;
62861;SDS011;48953;53.110;5.592;2024-01-16T01:22:34;7.30;;;1.00;;
62861;SDS011;48953;53.110;5.592;2024-01-16T01:25:00;9.65;;;1.50;;
62861;SDS011;48953;53.110;5.592;2024-01-16T01:27:26;7.57;;;1.10;;
62861;SDS011;48953;53.110;5.592;2024-01-16T01:29:52;9.38;;;1.20;;
62861;SDS011;48953;53.110;5.592;2024-01-16T01:32:18;12.52;;;1.33;;
62861;SDS011;48953;53.110;5.592;2024-01-16T01:34:44;8.45;;;1.40;;
62861;SDS011;48953;53.110;5.592;2024-01-16T01:37:10;7.47;;;1.48;;
62861;SDS011;48953;53.110;5.592;2024-01-16T01:39:36;5.65;;;1.00;;
62861;SDS011;48953;53.110;5.592;2024-01-16T01:42:02;5.28;;;1.20;;
62861;SDS011;48953;53.110;5.592;2024-01-16T01:44:28;9.45;;;1.30;;
62861;SDS011;48953;53.110;5.592;2024-01-16T01:46:54;6.03;;;1.05;;
62861;SDS011;48953;53.110;5.592;2024-01-16T01:49:20;11.73;;;1.77;;
62861;SDS011;48953;53.110;5.592;2024-01-16T01:51:47;8.77;;;1.05;;
62861;SDS011;48953;53.110;5.592;2024-01-16T01:54:14;6.13;;;0.90;;
62861;SDS011;48953;53.110;5.592;2024-01-16T01:56:42;6.03;;;1.27;;
62861;SDS011;48953;53.110;5.592;2024-01-16T01:59:09;8.18;;;0.93;;
62861;SDS011;48953;53.110;5.592;2024-01-16T02:01:35;8.88;;;1.20;;
62861;SDS011;48953;53.110;5.592;2024-01-16T02:04:02;6.93;;;1.30;;
62861;SDS011;48953;53.110;5.592;2024-01-16T02:06:28;5.43;;;0.98;;
62861;SDS011;48953;53.110;5.592;2024-01-16T02:08:54;11.93;;;1.40;;
62861;SDS011;48953;53.110;5.592;2024-01-16T02:11:20;3.35;;;1.05;;
62861;SDS011;48953;53.110;5.592;2024-01-16T02:13:46;6.30;;;1.15;;
62861;SDS011;48953;53.110;5.592;2024-01-16T02:16:22;11.68;;;1.25;;
62861;SDS011;48953;53.110;5.592;2024-01-16T02:18:49;5.72;;;0.75;;
62861;SDS011;48953;53.110;5.592;2024-01-16T02:21:15;7.50;;;1.20;;
62861;SDS011;48953;53.110;5.592;2024-01-16T02:23:43;6.10;;;0.80;;
62861;SDS011;48953;53.110;5.592;2024-01-16T02:26:09;4.93;;;1.10;;
62861;SDS011;48953;53.110;5.592;2024-01-16T02:28:35;6.72;;;0.93;;
62861;SDS011;48953;53.110;5.592;2024-01-16T02:31:01;7.55;;;0.98;;
62861;SDS011;48953;53.110;5.592;2024-01-16T02:33:27;6.78;;;1.15;;
62861;SDS011;48953;53.110;5.592;2024-01-16T02:35:53;6.43;;;0.93;;
62861;SDS011;48953;53.110;5.592;2024-01-16T02:38:19;7.68;;;1.00;;
62861;SDS011;48953;53.110;5.592;2024-01-16T02:40:45;7.88;;;0.90;;
62861;SDS011;48953;53.110;5.592;2024-01-16T02:43:11;8.02;;;1.30;;
62861;SDS011;48953;53.110;5.592;2024-01-16T02:45:37;7.57;;;1.45;;
62861;SDS011;48953;53.110;5.592;2024-01-16T02:48:04;7.75;;;1.58;;
62861;SDS011;48953;53.110;5.592;2024-01-16T02:50:30;7.55;;;0.90;;
62861;SDS011;48953;53.110;5.592;2024-01-16T02:52:56;9.90;;;1.63;;
62861;SDS011;48953;53.110;5.592;2024-01-16T02:55:22;8.95;;;1.75;;
62861;SDS011;48953;53.110;5.592;2024-01-16T02:57:48;11.02;;;1.55;;
62861;SDS011;48953;53.110;5.592;2024-01-16T03:00:15;10.20;;;1.20;;
62861;SDS011;48953;53.110;5.592;2024-01-16T03:02:42;6.68;;;1.02;;
62861;SDS011;48953;53.110;5.592;2024-01-16T03:05:09;8.45;;;1.02;;
62861;SDS011;48953;53.110;5.592;2024-01-16T03:07:35;6.88;;;0.80;;
62861;SDS011;48953;53.110;5.592;2024-01-16T03:10:02;7.93;;;1.25;;
62861;SDS011;48953;53.110;5.592;2024-01-16T03:12:28;7.82;;;1.00;;
62861;SDS011;48953;53.110;5.592;2024-01-16T03:14:54;6.55;;;0.90;;
62861;SDS011;48953;53.110;5.592;2024-01-16T03:17:20;7.10;;;1.00;;
62861;SDS011;48953;53.110;5.592;2024-01-16T03:19:46;9.57;;;1.27;;
62861;SDS011;48953;53.110;5.592;2024-01-16T03:22:12;7.60;;;1.10;;
62861;SDS011;48953;53.110;5.592;2024-01-16T03:24:38;9.20;;;1.20;;
62861;SDS011;48953;53.110;5.592;2024-01-16T03:27:05;8.27;;;1.33;;
62861;SDS011;48953;53.110;5.592;2024-01-16T03:29:31;5.07;;;0.80;;
62861;SDS011;48953;53.110;5.592;2024-01-16T03:31:58;9.23;;;1.20;;
62861;SDS011;48953;53.110;5.592;2024-01-16T03:34:25;7.40;;;1.00;;
62861;SDS011;48953;53.110;5.592;2024-01-16T03:36:52;6.50;;;0.85;;
62861;SDS011;48953;53.110;5.592;2024-01-16T03:39:18;9.70;;;1.33;;
62861;SDS011;48953;53.110;5.592;2024-01-16T03:41:44;12.25;;;1.58;;
62861;SDS011;48953;53.110;5.592;2024-01-16T03:44:10;7.60;;;1.10;;
62861;SDS011;48953;53.110;5.592;2024-01-16T03:46:36;12.10;;;1.58;;
62861;SDS011;48953;53.110;5.592;2024-01-16T03:49:02;7.82;;;1.05;;
62861;SDS011;48953;53.110;5.592;2024-01-16T03:51:28;7.45;;;1.15;;
62861;SDS011;48953;53.110;5.592;2024-01-16T03:53:54;12.88;;;1.50;;
62861;SDS011;48953;53.110;5.592;2024-01-16T03:56:20;8.60;;;1.40;;
62861;SDS011;48953;53.110;5.592;2024-01-16T03:58:46;9.27;;;1.35;;
62861;SDS011;48953;53.110;5.592;2024-01-16T04:01:12;6.55;;;1.35;;
62861;SDS011;48953;53.110;5.592;2024-01-16T04:03:39;10.23;;;1.48;;
62861;SDS011;48953;53.110;5.592;2024-01-16T04:06:17;12.23;;;1.98;;
62861;SDS011;48953;53.110;5.592;2024-01-16T04:08:44;10.20;;;1.52;;
62861;SDS011;48953;53.110;5.592;2024-01-16T04:11:13;11.40;;;1.30;;
62861;SDS011;48953;53.110;5.592;2024-01-16T04:13:39;7.88;;;1.52;;
62861;SDS011;48953;53.110;5.592;2024-01-16T04:16:05;10.02;;;1.38;;
62861;SDS011;48953;53.110;5.592;2024-01-16T04:18:38;1.88;;;0.50;;
62861;SDS011;48953;53.110;5.592;2024-01-16T04:21:04;5.70;;;0.90;;
62861;SDS011;48953;53.110;5.592;2024-01-16T04:23:31;5.82;;;0.60;;
62861;SDS011;48953;53.110;5.592;2024-01-16T04:25:57;5.72;;;0.77;;
62861;SDS011;48953;53.110;5.592;2024-01-16T04:28:23;6.32;;;0.90;;
62861;SDS011;48953;53.110;5.592;2024-01-16T04:30:49;5.72;;;0.75;;
62861;SDS011;48953;53.110;5.592;2024-01-16T04:33:15;4.20;;;0.68;;
62861;SDS011;48953;53.110;5.592;2024-01-16T04:35:41;9.27;;;1.23;;
62861;SDS011;48953;53.110;5.592;2024-01-16T04:38:07;6.60;;;1.40;;
62861;SDS011;48953;53.110;5.592;2024-01-16T04:40:33;6.35;;;1.02;;
62861;SDS011;48953;53.110;5.592;2024-01-16T04:43:00;7.22;;;1.13;;
62861;SDS011;48953;53.110;5.592;2024-01-16T04:45:26;9.10;;;1.10;;
62861;SDS011;48953;53.110;5.592;2024-01-16T04:47:52;9.65;;;1.60;;
62861;SDS011;48953;53.110;5.592;2024-01-16T04:50:18;5.05;;;0.82;;
62861;SDS011;48953;53.110;5.592;2024-01-16T04:52:44;6.28;;;1.17;;
62861;SDS011;48953;53.110;5.592;2024-01-16T04:55:10;8.32;;;1.40;;
62861;SDS011;48953;53.110;5.592;2024-01-16T04:57:36;9.38;;;1.33;;
62861;SDS011;48953;53.110;5.592;2024-01-16T05:00:03;7.68;;;1.08;;
62861;SDS011;48953;53.110;5.592;2024-01-16T05:02:32;6.55;;;0.90;;
62861;SDS011;48953;53.110;5.592;2024-01-16T05:04:59;8.48;;;1.13;;
62861;SDS011;48953;53.110;5.592;2024-01-16T05:07:25;5.05;;;0.98;;
62861;SDS011;48953;53.110;5.592;2024-01-16T05:09:51;7.40;;;0.88;;
62861;SDS011;48953;53.110;5.592;2024-01-16T05:12:18;5.15;;;1.13;;
62861;SDS011;48953;53.110;5.592;2024-01-16T05:14:44;10.88;;;1.48;;
62861;SDS011;48953;53.110;5.592;2024-01-16T05:17:10;8.13;;;1.08;;
62861;SDS011;48953;53.110;5.592;2024-01-16T05:19:36;8.00;;;1.25;;
62861;SDS011;48953;53.110;5.592;2024-01-16T05:22:02;10.98;;;1.30;;
62861;SDS011;48953;53.110;5.592;2024-01-16T05:24:29;7.80;;;1.45;;
62861;SDS011;48953;53.110;5.592;2024-01-16T05:26:55;8.75;;;1.30;;
62861;SDS011;48953;53.110;5.592;2024-01-16T05:29:21;9.77;;;1.30;;
62861;SDS011;48953;53.110;5.592;2024-01-16T05:31:47;8.52;;;1.23;;
62861;SDS011;48953;53.110;5.592;2024-01-16T05:34:13;9.35;;;1.13;;
62861;SDS011;48953;53.110;5.592;2024-01-16T05:36:40;11.63;;;1.33;;
62861;SDS011;48953;53.110;5.592;2024-01-16T05:39:06;10.05;;;1.30;;
62861;SDS011;48953;53.110;5.592;2024-01-16T05:41:33;11.82;;;1.58;;
62861;SDS011;48953;53.110;5.592;2024-01-16T05:44:00;6.35;;;1.40;;
62861;SDS011;48953;53.110;5.592;2024-01-16T05:46:28;9.23;;;1.45;;
62861;SDS011;48953;53.110;5.592;2024-01-16T05:48:55;8.77;;;1.13;;
62861;SDS011;48953;53.110;5.592;2024-01-16T05:51:21;10.77;;;1.90;;
62861;SDS011;48953;53.110;5.592;2024-01-16T05:53:47;8.10;;;1.20;;
62861;SDS011;48953;53.110;5.592;2024-01-16T05:56:13;11.05;;;1.40;;
62861;SDS011;48953;53.110;5.592;2024-01-16T05:58:39;10.85;;;1.80;;
62861;SDS011;48953;53.110;5.592;2024-01-16T06:01:05;7.53;;;1.92;;
62861;SDS011;48953;53.110;5.592;2024-01-16T06:03:31;7.60;;;1.35;;
62861;SDS011;48953;53.110;5.592;2024-01-16T06:05:58;10.73;;;1.70;;
62861;SDS011;48953;53.110;5.592;2024-01-16T06:08:24;8.38;;;1.42;;
62861;SDS011;48953;53.110;5.592;2024-01-16T06:10:50;8.15;;;1.38;;
62861;SDS011;48953;53.110;5.592;2024-01-16T06:13:17;11.77;;;1.92;;
62861;SDS011;48953;53.110;5.592;2024-01-16T06:15:43;12.30;;;2.40;;
62861;SDS011;48953;53.110;5.592;2024-01-16T06:18:09;12.10;;;1.88;;
62861;SDS011;48953;53.110;5.592;2024-01-16T06:20:35;7.05;;;1.67;;
62861;SDS011;48953;53.110;5.592;2024-01-16T06:23:01;9.10;;;1.70;;
62861;SDS011;48953;53.110;5.592;2024-01-16T06:25:27;9.80;;;1.27;;
62861;SDS011;48953;53.110;5.592;2024-01-16T06:27:53;12.35;;;1.98;;
62861;SDS011;48953;53.110;5.592;2024-01-16T06:30:20;9.55;;;1.55;;
62861;SDS011;48953;53.110;5.592;2024-01-16T06:32:46;13.88;;;1.95;;
62861;SDS011;48953;53.110;5.592;2024-01-16T06:35:12;11.38;;;1.58;;
62861;SDS011;48953;53.110;5.592;2024-01-16T06:37:38;10.13;;;1.75;;
62861;SDS011;48953;53.110;5.592;2024-01-16T06:40:05;9.77;;;1.48;;
62861;SDS011;48953;53.110;5.592;2024-01-16T06:42:31;10.90;;;1.45;;
62861;SDS011;48953;53.110;5.592;2024-01-16T06:44:58;13.18;;;2.08;;
62861;SDS011;48953;53.110;5.592;2024-01-16T06:47:24;9.85;;;2.40;;
62861;SDS011;48953;53.110;5.592;2024-01-16T06:49:50;7.70;;;1.90;;
62861;SDS011;48953;53.110;5.592;2024-01-16T06:52:16;14.57;;;2.22;;
62861;SDS011;48953;53.110;5.592;2024-01-16T06:54:42;13.02;;;1.73;;
62861;SDS011;48953;53.110;5.592;2024-01-16T06:57:08;12.68;;;1.88;;
62861;SDS011;48953;53.110;5.592;2024-01-16T06:59:34;13.68;;;2.13;;
62861;SDS011;48953;53.110;5.592;2024-01-16T07:02:00;12.80;;;2.20;;
62861;SDS011;48953;53.110;5.592;2024-01-16T07:04:26;10.68;;;1.75;;
62861;SDS011;48953;53.110;5.592;2024-01-16T07:06:52;12.98;;;2.28;;
62861;SDS011;48953;53.110;5.592;2024-01-16T07:09:18;11.10;;;2.00;;
62861;SDS011;48953;53.110;5.592;2024-01-16T07:11:46;12.25;;;2.30;;
62861;SDS011;48953;53.110;5.592;2024-01-16T07:14:12;11.95;;;2.10;;
62861;SDS011;48953;53.110;5.592;2024-01-16T07:16:38;8.77;;;1.73;;
62861;SDS011;48953;53.110;5.592;2024-01-16T07:19:04;5.10;;;1.20;;
62861;SDS011;48953;53.110;5.592;2024-01-16T07:21:30;7.47;;;1.10;;
62861;SDS011;48953;53.110;5.592;2024-01-16T07:23:56;6.38;;;0.85;;
62861;SDS011;48953;53.110;5.592;2024-01-16T07:26:23;7.15;;;0.90;;
62861;SDS011;48953;53.110;5.592;2024-01-16T07:28:49;12.75;;;1.75;;
62861;SDS011;48953;53.110;5.592;2024-01-16T07:31:15;8.05;;;1.33;;
62861;SDS011;48953;53.110;5.592;2024-01-16T07:33:41;6.05;;;1.15;;
62861;SDS011;48953;53.110;5.592;2024-01-16T07:36:08;6.35;;;1.08;;
62861;SDS011;48953;53.110;5.592;2024-01-16T07:38:34;7.72;;;1.13;;
62861;SDS011;48953;53.110;5.592;2024-01-16T07:41:04;5.65;;;0.90;;
62861;SDS011;48953;53.110;5.592;2024-01-16T07:43:30;2.53;;;0.55;;
62861;SDS011;48953;53.110;5.592;2024-01-16T07:45:56;5.22;;;0.75;;
62861;SDS011;48953;53.110;5.592;2024-01-16T07:48:22;8.00;;;0.85;;
62861;SDS011;48953;53.110;5.592;2024-01-16T07:50:48;6.68;;;1.15;;
62861;SDS011;48953;53.110;5.592;2024-01-16T07:53:15;4.97;;;1.10;;
62861;SDS011;48953;53.110;5.592;2024-01-16T07:55:41;5.72;;;1.08;;
62861;SDS011;48953;53.110;5.592;2024-01-16T07:58:07;6.78;;;0.85;;
62861;SDS011;48953;53.110;5.592;2024-01-16T08:00:33;5.72;;;1.20;;
62861;SDS011;48953;53.110;5.592;2024-01-16T08:02:59;6.53;;;1.38;;
62861;SDS011;48953;53.110;5.592;2024-01-16T08:05:25;4.18;;;0.90;;
62861;SDS011;48953;53.110;5.592;2024-01-16T08:07:53;11.25;;;1.05;;
62861;SDS011;48953;53.110;5.592;2024-01-16T08:10:18;5.80;;;0.80;;
62861;SDS011;48953;53.110;5.592;2024-01-16T08:12:45;1.75;;;0.50;;
62861;SDS011;48953;53.110;5.592;2024-01-16T08:15:11;6.25;;;0.73;;
62861;SDS011;48953;53.110;5.592;2024-01-16T08:17:37;3.40;;;0.65;;
62861;SDS011;48953;53.110;5.592;2024-01-16T08:20:04;4.20;;;0.80;;
62861;SDS011;48953;53.110;5.592;2024-01-16T08:22:30;2.33;;;0.82;;
62861;SDS011;48953;53.110;5.592;2024-01-16T08:24:56;5.78;;;0.85;;
62861;SDS011;48953;53.110;5.592;2024-01-16T08:27:22;5.63;;;0.60;;
62861;SDS011;48953;53.110;5.592;2024-01-16T08:29:48;3.75;;;0.70;;
62861;SDS011;48953;53.110;5.592;2024-01-16T08:32:15;3.63;;;0.70;;
62861;SDS011;48953;53.110;5.592;2024-01-16T08:34:42;5.47;;;0.70;;
62861;SDS011;48953;53.110;5.592;2024-01-16T08:37:08;4.70;;;0.70;;
62861;SDS011;48953;53.110;5.592;2024-01-16T08:39:34;6.57;;;0.85;;
62861;SDS011;48953;53.110;5.592;2024-01-16T08:42:01;6.93;;;0.80;;
62861;SDS011;48953;53.110;5.592;2024-01-16T08:44:28;3.95;;;0.80;;
62861;SDS011;48953;53.110;5.592;2024-01-16T08:46:54;5.95;;;0.80;;
62861;SDS011;48953;53.110;5.592;2024-01-16T08:49:20;3.67;;;0.95;;
62861;SDS011;48953;53.110;5.592;2024-01-16T08:51:46;5.50;;;1.05;;
62861;SDS011;48953;53.110;5.592;2024-01-16T08:54:12;4.70;;;0.85;;
62861;SDS011;48953;53.110;5.592;2024-01-16T08:56:38;3.88;;;1.13;;
62861;SDS011;48953;53.110;5.592;2024-01-16T08:59:04;4.22;;;0.60;;
62861;SDS011;48953;53.110;5.592;2024-01-16T09:01:30;4.97;;;0.73;;
62861;SDS011;48953;53.110;5.592;2024-01-16T09:03:56;5.28;;;0.90;;
62861;SDS011;48953;53.110;5.592;2024-01-16T09:06:22;6.00;;;0.82;;
62861;SDS011;48953;53.110;5.592;2024-01-16T09:08:48;4.10;;;0.98;;
62861;SDS011;48953;53.110;5.592;2024-01-16T09:11:14;4.32;;;0.85;;
62861;SDS011;48953;53.110;5.592;2024-01-16T09:13:40;7.28;;;1.42;;
62861;SDS011;48953;53.110;5.592;2024-01-16T09:16:06;4.47;;;0.88;;
62861;SDS011;48953;53.110;5.592;2024-01-16T09:18:32;3.45;;;0.73;;
62861;SDS011;48953;53.110;5.592;2024-01-16T09:20:58;2.97;;;0.68;;
62861;SDS011;48953;53.110;5.592;2024-01-16T09:23:24;4.57;;;0.80;;
62861;SDS011;48953;53.110;5.592;2024-01-16T09:25:50;3.75;;;0.75;;
62861;SDS011;48953;53.110;5.592;2024-01-16T09:28:16;7.15;;;0.95;;
62861;SDS011;48953;53.110;5.592;2024-01-16T09:30:42;4.25;;;1.48;;
62861;SDS011;48953;53.110;5.592;2024-01-16T09:33:08;2.85;;;1.00;;
62861;SDS011;48953;53.110;5.592;2024-01-16T09:35:35;6.00;;;1.27;;
62861;SDS011;48953;53.110;5.592;2024-01-16T09:38:01;8.65;;;1.13;;
62861;SDS011;48953;53.110;5.592;2024-01-16T09:40:29;5.82;;;1.00;;
62861;SDS011;48953;53.110;5.592;2024-01-16T09:42:55;7.80;;;0.95;;
62861;SDS011;48953;53.110;5.592;2024-01-16T09:45:22;7.53;;;1.05;;
62861;SDS011;48953;53.110;5.592;2024-01-16T09:47:49;5.15;;;0.93;;
62861;SDS011;48953;53.110;5.592;2024-01-16T09:50:16;4.68;;;1.38;;
62861;SDS011;48953;53.110;5.592;2024-01-16T09:52:43;6.05;;;1.45;;
62861;SDS011;48953;53.110;5.592;2024-01-16T09:55:09;9.40;;;1.60;;
62861;SDS011;48953;53.110;5.592;2024-01-16T09:57:35;9.63;;;1.70;;
62861;SDS011;48953;53.110;5.592;2024-01-16T10:00:05;13.07;;;2.17;;
62861;SDS011;48953;53.110;5.592;2024-01-16T10:02:32;7.95;;;1.98;;
62861;SDS011;48953;53.110;5.592;2024-01-16T10:04:58;8.70;;;1.83;;
62861;SDS011;48953;53.110;5.592;2024-01-16T10:07:24;10.13;;;1.83;;
62861;SDS011;48953;53.110;5.592;2024-01-16T10:09:55;11.32;;;2.30;;
62861;SDS011;48953;53.110;5.592;2024-01-16T10:12:21;7.47;;;1.92;;
62861;SDS011;48953;53.110;5.592;2024-01-16T10:14:47;7.97;;;1.60;;
62861;SDS011;48953;53.110;5.592;2024-01-16T10:17:15;8.60;;;1.27;;
62861;SDS011;48953;53.110;5.592;2024-01-16T10:19:49;7.10;;;1.60;;
62861;SDS011;48953;53.110;5.592;2024-01-16T10:22:22;5.70;;;1.40;;
62861;SDS011;48953;53.110;5.592;2024-01-16T10:24:49;7.45;;;1.50;;
62861;SDS011;48953;53.110;5.592;2024-01-16T10:27:16;3.42;;;1.10;;
62861;SDS011;48953;53.110;5.592;2024-01-16T10:29:55;3.60;;;1.13;;
62861;SDS011;48953;53.110;5.592;2024-01-16T10:32:34;4.53;;;1.10;;
62861;SDS011;48953;53.110;5.592;2024-01-16T10:35:10;5.20;;;1.20;;
62861;SDS011;48953;53.110;5.592;2024-01-16T10:37:40;5.50;;;1.80;;
62861;SDS011;48953;53.110;5.592;2024-01-16T10:40:09;5.82;;;1.02;;
62861;SDS011;48953;53.110;5.592;2024-01-16T10:42:36;6.47;;;1.40;;
62861;SDS011;48953;53.110;5.592;2024-01-16T10:45:03;5.40;;;1.25;;
62861;SDS011;48953;53.110;5.592;2024-01-16T10:47:30;10.40;;;1.60;;
62861;SDS011;48953;53.110;5.592;2024-01-16T10:49:59;10.23;;;1.73;;
62861;SDS011;48953;53.110;5.592;2024-01-16T10:52:27;7.03;;;1.90;;
62861;SDS011;48953;53.110;5.592;2024-01-16T10:54:53;7.97;;;1.67;;
62861;SDS011;48953;53.110;5.592;2024-01-16T10:57:23;11.15;;;1.98;;
62861;SDS011;48953;53.110;5.592;2024-01-16T10:59:52;9.00;;;1.85;;
62861;SDS011;48953;53.110;5.592;2024-01-16T11:02:20;11.13;;;2.35;;
62861;SDS011;48953;53.110;5.592;2024-01-16T11:04:50;8.43;;;1.73;;
62861;SDS011;48953;53.110;5.592;2024-01-16T11:07:19;6.25;;;1.70;;
62861;SDS011;48953;53.110;5.592;2024-01-16T11:09:47;5.68;;;1.55;;
62861;SDS011;48953;53.110;5.592;2024-01-16T11:12:14;8.77;;;1.83;;
62861;SDS011;48953;53.110;5.592;2024-01-16T11:14:43;8.13;;;2.10;;
62861;SDS011;48953;53.110;5.592;2024-01-16T11:17:10;10.98;;;1.90;;
62861;SDS011;48953;53.110;5.592;2024-01-16T11:19:42;7.25;;;1.70;;
62861;SDS011;48953;53.110;5.592;2024-01-16T11:22:08;6.70;;;1.80;;
62861;SDS011;48953;53.110;5.592;2024-01-16T11:24:35;6.25;;;2.20;;
62861;SDS011;48953;53.110;5.592;2024-01-16T11:27:01;8.40;;;2.10;;
62861;SDS011;48953;53.110;5.592;2024-01-16T11:31:53;8.93;;;1.52;;
62861;SDS011;48953;53.110;5.592;2024-01-16T11:37:05;8.23;;;1.67;;
62861;SDS011;48953;53.110;5.592;2024-01-16T11:39:32;5.70;;;1.60;;
62861;SDS011;48953;53.110;5.592;2024-01-16T11:41:59;8.65;;;2.00;;
62861;SDS011;48953;53.110;5.592;2024-01-16T11:47:09;6.80;;;1.80;;
62861;SDS011;48953;53.110;5.592;2024-01-16T11:49:39;10.43;;;2.08;;
62861;SDS011;48953;53.110;5.592;2024-01-16T11:52:05;7.07;;;1.75;;
62861;SDS011;48953;53.110;5.592;2024-01-16T11:54:32;4.93;;;1.70;;
62861;SDS011;48953;53.110;5.592;2024-01-16T11:57:14;8.45;;;2.25;;
62861;SDS011;48953;53.110;5.592;2024-01-16T12:02:25;8.27;;;2.97;;
62861;SDS011;48953;53.110;5.592;2024-01-16T12:04:53;7.10;;;3.40;;
62861;SDS011;48953;53.110;5.592;2024-01-16T12:07:23;15.10;;;3.95;;
62861;SDS011;48953;53.110;5.592;2024-01-16T12:09:49;8.20;;;3.05;;
62861;SDS011;48953;53.110;5.592;2024-01-16T12:12:15;11.32;;;3.47;;
62861;SDS011;48953;53.110;5.592;2024-01-16T12:14:50;11.35;;;3.90;;
62861;SDS011;48953;53.110;5.592;2024-01-16T12:17:18;9.23;;;3.53;;
62861;SDS011;48953;53.110;5.592;2024-01-16T12:19:45;10.30;;;3.30;;
62861;SDS011;48953;53.110;5.592;2024-01-16T12:22:14;9.88;;;3.50;;
62861;SDS011;48953;53.110;5.592;2024-01-16T12:24:41;9.35;;;3.53;;
62861;SDS011;48953;53.110;5.592;2024-01-16T12:27:07;10.57;;;3.28;;
62861;SDS011;48953;53.110;5.592;2024-01-16T12:29:34;8.15;;;3.22;;
62861;SDS011;48953;53.110;5.592;2024-01-16T12:34:34;7.20;;;3.10;;
62861;SDS011;48953;53.110;5.592;2024-01-16T12:37:06;8.32;;;3.33;;
62861;SDS011;48953;53.110;5.592;2024-01-16T12:39:33;11.88;;;3.60;;
62861;SDS011;48953;53.110;5.592;2024-01-16T12:42:00;6.15;;;3.00;;
62861;SDS011;48953;53.110;5.592;2024-01-16T12:44:27;12.90;;;3.17;;
62861;SDS011;48953;53.110;5.592;2024-01-16T12:46:53;7.05;;;2.80;;
62861;SDS011;48953;53.110;5.592;2024-01-16T12:49:20;8.45;;;3.53;;
62861;SDS011;48953;53.110;5.592;2024-01-16T12:51:46;7.82;;;3.22;;
62861;SDS011;48953;53.110;5.592;2024-01-16T12:54:13;11.63;;;3.17;;
62861;SDS011;48953;53.110;5.592;2024-01-16T12:56:39;12.18;;;4.07;;
62861;SDS011;48953;53.110;5.592;2024-01-16T12:59:09;10.48;;;3.35;;
62861;SDS011;48953;53.110;5.592;2024-01-16T13:01:38;8.57;;;2.70;;
62861;SDS011;48953;53.110;5.592;2024-01-16T13:04:06;7.70;;;3.30;;
62861;SDS011;48953;53.110;5.592;2024-01-16T13:06:33;5.57;;;2.67;;
62861;SDS011;48953;53.110;5.592;2024-01-16T13:09:09;7.97;;;2.72;;
62861;SDS011;48953;53.110;5.592;2024-01-16T13:11:54;9.40;;;2.75;;
62861;SDS011;48953;53.110;5.592;2024-01-16T13:14:21;7.82;;;2.78;;
62861;SDS011;48953;53.110;5.592;2024-01-16T13:16:56;4.82;;;2.05;;
62861;SDS011;48953;53.110;5.592;2024-01-16T13:19:22;6.38;;;2.08;;
62861;SDS011;48953;53.110;5.592;2024-01-16T13:21:49;12.30;;;2.00;;
62861;SDS011;48953;53.110;5.592;2024-01-16T13:24:15;8.85;;;1.52;;
62861;SDS011;48953;53.110;5.592;2024-01-16T13:26:43;4.88;;;1.20;;
62861;SDS011;48953;53.110;5.592;2024-01-16T13:29:08;8.93;;;1.27;;
62861;SDS011;48953;53.110;5.592;2024-01-16T13:31:34;3.70;;;0.90;;
62861;SDS011;48953;53.110;5.592;2024-01-16T13:34:00;9.55;;;2.03;;
62861;SDS011;48953;53.110;5.592;2024-01-16T13:36:26;7.90;;;1.80;;
62861;SDS011;48953;53.110;5.592;2024-01-16T13:38:53;5.88;;;1.67;;
62861;SDS011;48953;53.110;5.592;2024-01-16T13:41:19;5.47;;;1.50;;
62861;SDS011;48953;53.110;5.592;2024-01-16T13:43:46;9.63;;;1.88;;
62861;SDS011;48953;53.110;5.592;2024-01-16T13:46:14;6.57;;;1.70;;
62861;SDS011;48953;53.110;5.592;2024-01-16T13:48:42;9.75;;;1.85;;
62861;SDS011;48953;53.110;5.592;2024-01-16T13:51:08;6.93;;;1.60;;
62861;SDS011;48953;53.110;5.592;2024-01-16T13:53:35;8.38;;;1.70;;
62861;SDS011;48953;53.110;5.592;2024-01-16T13:56:01;7.85;;;1.75;;
62861;SDS011;48953;53.110;5.592;2024-01-16T13:58:27;6.65;;;1.55;;
62861;SDS011;48953;53.110;5.592;2024-01-16T14:00:53;5.82;;;1.35;;
62861;SDS011;48953;53.110;5.592;2024-01-16T14:03:19;7.68;;;1.30;;
62861;SDS011;48953;53.110;5.592;2024-01-16T14:05:46;5.20;;;1.33;;
62861;SDS011;48953;53.110;5.592;2024-01-16T14:08:12;3.95;;;1.38;;
62861;SDS011;48953;53.110;5.592;2024-01-16T14:10:39;4.72;;;1.40;;
62861;SDS011;48953;53.110;5.592;2024-01-16T14:13:05;7.28;;;1.60;;
62861;SDS011;48953;53.110;5.592;2024-01-16T14:15:31;5.57;;;1.75;;
62861;SDS011;48953;53.110;5.592;2024-01-16T14:17:57;7.25;;;2.05;;
62861;SDS011;48953;53.110;5.592;2024-01-16T14:20:24;4.10;;;1.40;;
62861;SDS011;48953;53.110;5.592;2024-01-16T14:22:51;6.30;;;1.27;;
62861;SDS011;48953;53.110;5.592;2024-01-16T14:25:18;4.57;;;1.20;;
62861;SDS011;48953;53.110;5.592;2024-01-16T14:27:45;5.30;;;0.98;;
62861;SDS011;48953;53.110;5.592;2024-01-16T14:30:15;3.90;;;1.20;;
62861;SDS011;48953;53.110;5.592;2024-01-16T14:32:44;4.15;;;0.90;;
62861;SDS011;48953;53.110;5.592;2024-01-16T14:35:13;5.78;;;1.65;;
62861;SDS011;48953;53.110;5.592;2024-01-16T14:37:39;7.78;;;1.88;;
62861;SDS011;48953;53.110;5.592;2024-01-16T14:40:06;8.95;;;1.77;;
62861;SDS011;48953;53.110;5.592;2024-01-16T14:42:37;5.45;;;1.40;;
62861;SDS011;48953;53.110;5.592;2024-01-16T14:45:03;8.95;;;1.40;;
62861;SDS011;48953;53.110;5.592;2024-01-16T14:47:31;5.47;;;1.20;;
62861;SDS011;48953;53.110;5.592;2024-01-16T14:49:57;6.38;;;1.10;;
62861;SDS011;48953;53.110;5.592;2024-01-16T14:52:23;8.57;;;1.77;;
62861;SDS011;48953;53.110;5.592;2024-01-16T14:54:49;9.25;;;1.80;;
62861;SDS011;48953;53.110;5.592;2024-01-16T14:57:15;5.38;;;1.42;;